Decoded Metar for KCEU (CLEMSON in SC, USA) (IATA:CEU) | Meteo·Mobile Aviation Weather
aviador You're here:

KCEU Decoded Metar

CLEMSON in SC, USA
Report Time2019-03-22 09:54:00
UTC Time2019-03-22 10:16:05
Flight Rules vfr VFR
Wind260° at 06 kt
W.Decomp.*RWY 25: 5.8 kt HW 1.6 kt RCW
W.Rank260° ranks 3
Current wind is below 260° avg. (7.3)
Visibility9999 m
Phenomena:N/A
Clouds:N/A
Expected CloudBase > 2,800 ft AGL from Temp-Dew spread
CeilingNone
Temp04°C (ISA -9)
Dew Point-3°C (61% RH)
AAT-0.5°C
QNH1014 hPa
Density Alt-203 ft
Elevation879 ft
Report Wrong Elevation
Raw Report
METAR KCEU 220954Z AUTO 26006KT 10SM CLR 04/M03 A2993 RMK AO2 SLP134
T00391028=

Extra information for KCEU:More info

Metar Taf Metar & Taf Last 4 Metars F.Rules Stats Wind Profile Meteogram Temp Stats Airport Information Weather charts Add Link Nearby VenuesMetar ALERT Operation Metar Decoded Social comments

AIRNAV info for KCEU